Time;durP1;ratioP1;P1;durP2;ratioP2;P2;SDS_P1;SDS_P2;PMS_P1;PMS_P2;Temp;Humidity;BMP_temperature;BMP_pressure;BME280_temperature;BME280_humidity;BME280_pressure;Samples;Min_cycle;Max_cycle;Signal;HPM_P1;HPM_P2
2021/01/15 00:00:12;;;;;;;15.55;6.18;;;;;;;-0.37;93.46;101652.63;5060309;28;20426;-72
2021/01/15 00:02:38;;;;;;;12.45;5.70;;;;;;;-0.39;93.86;101659.69;5071683;28;20032;-72
2021/01/15 00:05:04;;;;;;;14.48;6.25;;;;;;;-0.47;93.89;101661.47;5069648;28;20044;-71
2021/01/15 00:07:30;;;;;;;14.18;5.65;;;;;;;-0.49;94.04;101664.09;5055135;28;20027;-71
2021/01/15 00:09:55;;;;;;;11.50;6.38;;;;;;;-0.49;93.92;101665.88;5066570;28;20033;-72
2021/01/15 00:12:21;;;;;;;10.70;6.03;;;;;;;-0.51;94.26;101675.56;5074089;28;20029;-72
2021/01/15 00:14:46;;;;;;;13.95;6.20;;;;;;;-0.56;94.54;101672.06;5074662;28;20040;-72
2021/01/15 00:17:12;;;;;;;10.27;5.78;;;;;;;-0.59;94.86;101672.06;5066565;28;20036;-72
2021/01/15 00:19:37;;;;;;;15.73;5.93;;;;;;;-0.63;95.17;101675.59;5068935;28;20036;-71
2021/01/15 00:22:02;;;;;;;12.45;5.82;;;;;;;-0.64;95.22;101676.50;5076188;28;20024;-72
2021/01/15 00:24:28;;;;;;;11.85;6.07;;;;;;;-0.67;95.25;101668.56;5067588;28;20036;-72
2021/01/15 00:26:53;;;;;;;15.90;6.07;;;;;;;-0.71;95.42;101678.25;5068069;28;20063;-72
2021/01/15 00:29:18;;;;;;;13.63;5.93;;;;;;;-0.73;95.65;101677.38;5073039;28;20173;-72
2021/01/15 00:31:46;;;;;;;14.63;6.45;;;;;;;-0.76;95.82;101679.16;5072270;28;21480;-72
2021/01/15 00:34:14;;;;;;;14.18;6.60;;;;;;;-0.79;95.87;101682.66;5079343;28;20024;-71
2021/01/15 00:36:41;;;;;;;16.17;6.25;;;;;;;-0.82;96.06;101687.97;5074414;28;20125;-71
2021/01/15 00:39:08;;;;;;;15.07;5.93;;;;;;;-0.83;96.19;101688.84;5068150;28;20036;-72
2021/01/15 00:41:35;;;;;;;12.70;5.82;;;;;;;-0.85;96.17;101683.56;5067071;28;20020;-72
2021/01/15 00:44:01;;;;;;;12.98;6.13;;;;;;;-0.87;96.13;101687.09;5067045;28;20028;-72
2021/01/15 00:46:31;;;;;;;13.15;6.07;;;;;;;-0.89;96.32;101680.94;5064959;28;20047;-71
2021/01/15 00:49:15;;;;;;;13.63;6.50;;;;;;;-0.93;96.64;101677.47;5071355;28;20024;-72
2021/01/15 00:51:50;;;;;;;12.82;6.45;;;;;;;-0.96;96.57;101682.72;5066210;28;20381;-72
2021/01/15 00:54:17;;;;;;;13.93;6.85;;;;;;;-0.99;96.80;101682.69;5057056;28;20549;-71
2021/01/15 00:56:43;;;;;;;10.75;5.88;;;;;;;-0.98;96.71;101686.22;5069428;28;20040;-72
2021/01/15 00:59:15;;;;;;;12.88;6.60;;;;;;;-1.01;97.08;101681.84;5064088;28;20024;-72
2021/01/15 01:01:51;;;;;;;13.57;6.53;;;;;;;-1.03;97.11;101686.22;5067085;28;20068;-72
2021/01/15 01:04:17;;;;;;;13.95;6.88;;;;;;;-1.06;97.32;101686.25;5058740;28;20064;-72
2021/01/15 01:06:43;;;;;;;14.77;6.95;;;;;;;-1.06;97.62;101688.91;5061193;28;20029;-72
2021/01/15 01:09:09;;;;;;;14.95;7.40;;;;;;;-1.10;97.65;101689.75;5079059;28;20070;-72
2021/01/15 01:11:34;;;;;;;14.82;7.22;;;;;;;-1.13;97.84;101695.03;5060879;28;20059;-72
2021/01/15 01:14:01;;;;;;;17.00;7.82;;;;;;;-1.12;97.91;101702.06;5065595;28;20706;-72
2021/01/15 01:16:27;;;;;;;14.77;7.70;;;;;;;-1.14;98.03;101702.94;5062891;28;20042;-72
2021/01/15 01:18:54;;;;;;;17.23;7.47;;;;;;;-1.17;98.23;101701.16;5069190;28;20395;-72
2021/01/15 01:21:21;;;;;;;16.02;7.50;;;;;;;-1.20;98.39;101703.81;5066304;28;20552;-72
2021/01/15 01:23:46;;;;;;;15.00;7.57;;;;;;;-1.24;98.57;101702.97;5063867;28;20684;-72
2021/01/15 01:26:12;;;;;;;14.18;7.28;;;;;;;-1.25;98.73;101731.94;5064914;28;20326;-72
2021/01/15 01:28:39;;;;;;;15.25;8.27;;;;;;;-1.29;98.74;101724.88;5071569;28;20035;-72
2021/01/15 01:31:05;;;;;;;16.83;7.90;;;;;;;-1.30;98.87;101733.69;5077042;28;20056;-72
2021/01/15 01:33:30;;;;;;;19.65;8.55;;;;;;;-1.32;98.92;101736.31;5073249;28;20474;-72
2021/01/15 01:35:56;;;;;;;18.45;9.23;;;;;;;-1.34;98.86;101734.53;5071963;28;20040;-72
2021/01/15 01:38:21;;;;;;;22.35;8.52;;;;;;;-1.35;98.97;101740.69;5064053;28;20064;-72
2021/01/15 01:40:47;;;;;;;19.10;8.55;;;;;;;-1.37;99.04;101747.72;5075184;28;20031;-72
2021/01/15 01:43:13;;;;;;;17.45;8.50;;;;;;;-1.40;99.07;101748.59;5076351;28;20020;-72
2021/01/15 01:45:39;;;;;;;18.92;8.55;;;;;;;-1.42;99.12;101752.97;5065253;28;20735;-72
2021/01/15 01:48:05;;;;;;;16.85;8.35;;;;;;;-1.44;99.15;101745.97;5067345;28;20103;-72
2021/01/15 01:50:32;;;;;;;17.33;7.78;;;;;;;-1.46;99.12;101745.06;5058279;28;20468;-72
2021/01/15 01:52:59;;;;;;;24.20;8.85;;;;;;;-1.49;99.05;101752.97;5065056;28;20040;-72
2021/01/15 01:55:25;;;;;;;21.00;8.35;;;;;;;-1.52;99.45;101755.59;5069373;28;20176;-72
2021/01/15 01:57:51;;;;;;;16.30;8.70;;;;;;;-1.53;99.74;101756.47;5072814;28;20115;-73
2021/01/15 02:00:16;;;;;;;21.77;8.68;;;;;;;-1.55;99.86;101766.13;5065828;28;20482;-72
2021/01/15 02:02:42;;;;;;;18.58;8.25;;;;;;;-1.57;100.00;101771.38;5067281;28;20034;-72
2021/01/15 02:05:08;;;;;;;18.67;8.68;;;;;;;-1.60;100.00;101766.09;5048102;28;20029;-72
2021/01/15 02:07:34;;;;;;;14.25;7.80;;;;;;;-1.61;100.00;101771.38;5067951;28;20056;-72
2021/01/15 02:10:06;;;;;;;15.73;7.47;;;;;;;-1.63;100.00;101771.38;5065546;28;20123;-73
2021/01/15 02:12:44;;;;;;;17.50;8.02;;;;;;;-1.66;100.00;101780.13;5052668;28;20380;-73
2021/01/15 02:15:17;;;;;;;16.63;7.90;;;;;;;-1.67;100.00;101778.38;5063970;28;20040;-73
2021/01/15 02:17:50;;;;;;;18.52;8.35;;;;;;;-1.68;100.00;101779.28;5057829;28;20029;-73
2021/01/15 02:20:53;;;;;;;16.95;8.43;;;;;;;-1.70;100.00;101781.00;5062437;28;20036;-73
2021/01/15 02:23:30;;;;;;;22.60;9.95;;;;;;;-1.70;100.00;101781.00;5053100;28;20040;-72
2021/01/15 02:26:02;;;;;;;17.40;8.90;;;;;;;-1.71;100.00;101779.25;5057191;28;20059;-73
2021/01/15 02:28:46;;;;;;;;;;;;;;;-1.69;100.00;101781.88;5061623;28;20369;-72
2021/01/15 02:31:30;;;;;;;28.83;11.57;;;;;;;-1.60;100.00;101784.53;5062166;28;20588;-73
2021/01/15 02:34:17;;;;;;;28.45;10.77;;;;;;;-1.59;100.00;101798.56;5066815;28;20111;-72
2021/01/15 02:37:11;;;;;;;33.20;11.52;;;;;;;-1.58;100.00;101793.31;5065242;28;20152;-72
2021/01/15 02:40:02;;;;;;;30.95;12.75;;;;;;;-1.56;100.00;101788.06;5065045;28;20166;-72
2021/01/15 02:42:30;;;;;;;36.17;15.27;;;;;;;-1.50;100.00;101790.72;5061751;28;20060;-72
2021/01/15 02:44:57;;;;;;;40.60;16.40;;;;;;;-1.48;100.00;101796.88;5057814;28;20163;-72
2021/01/15 02:47:26;;;;;;;39.10;14.88;;;;;;;-1.49;100.00;101793.34;5056595;28;20082;-73
2021/01/15 02:49:55;;;;;;;40.85;18.13;;;;;;;-1.46;100.00;101803.88;5066488;28;20116;-73
2021/01/15 02:52:20;;;;;;;37.88;16.75;;;;;;;-1.42;100.00;101802.16;5063599;28;20028;-73
2021/01/15 02:54:46;;;;;;;47.35;17.33;;;;;;;-1.39;100.00;101802.13;5056506;28;20029;-72
2021/01/15 02:57:11;;;;;;;36.63;16.63;;;;;;;-1.35;100.00;101801.25;5063822;28;20032;-73
2021/01/15 02:59:36;;;;;;;39.47;17.35;;;;;;;-1.33;100.00;101802.16;5073370;28;20112;-72
2021/01/15 03:02:26;;;;;;;41.38;17.67;;;;;;;-1.23;100.00;101803.91;5065226;28;20086;-72
2021/01/15 03:05:02;;;;;;;36.25;16.85;;;;;;;-1.22;100.00;101801.28;5072933;28;20028;-72
2021/01/15 03:07:30;;;;;;;39.40;16.63;;;;;;;-1.19;100.00;101810.97;5067206;28;20040;-73
2021/01/15 03:09:58;;;;;;;42.40;17.85;;;;;;;-1.01;100.00;101808.34;5071838;28;20371;-73
2021/01/15 03:12:25;;;;;;;43.97;17.77;;;;;;;-1.01;100.00;101821.50;5065039;28;20449;-72
2021/01/15 03:14:53;;;;;;;37.90;16.15;;;;;;;-1.00;100.00;101823.28;5082122;28;20115;-73
2021/01/15 03:17:23;;;;;;;34.80;16.30;;;;;;;-1.00;100.00;101818.00;5063450;28;20036;-72
2021/01/15 03:19:49;;;;;;;38.17;16.95;;;;;;;-0.95;100.00;101821.50;5067259;28;20032;-73
2021/01/15 03:22:17;;;;;;;36.58;15.27;;;;;;;-0.90;100.00;101826.78;5058562;28;20036;-73
2021/01/15 03:24:58;;;;;;;40.45;16.42;;;;;;;-0.72;100.00;101836.44;5080947;28;20032;-73
2021/01/15 03:27:37;;;;;;;35.72;14.70;;;;;;;-0.75;100.00;101836.44;5056639;28;20032;-73
2021/01/15 03:30:04;;;;;;;30.73;14.60;;;;;;;-0.78;100.00;101844.34;5054928;28;20495;-73
2021/01/15 03:32:29;;;;;;;30.42;14.98;;;;;;;-0.70;100.00;101843.47;5063592;28;20044;-72
2021/01/15 03:34:54;;;;;;;38.00;15.50;;;;;;;-0.72;100.00;101842.59;5072624;28;20490;-72
2021/01/15 03:37:20;;;;;;;36.10;15.25;;;;;;;-0.55;100.00;101847.84;5068228;28;20059;-73
2021/01/15 03:39:45;;;;;;;32.30;14.18;;;;;;;-0.55;100.00;101846.09;5060285;28;20607;-72
2021/01/15 03:42:10;;;;;;;34.38;14.02;;;;;;;-0.49;100.00;101858.38;5065194;28;20162;-72
2021/01/15 03:44:36;;;;;;;37.50;14.52;;;;;;;-0.47;100.00;101857.50;5061573;28;20036;-72
2021/01/15 03:47:01;;;;;;;31.83;14.40;;;;;;;-0.39;100.00;101860.16;5065109;28;20036;-72
2021/01/15 03:49:27;;;;;;;29.27;14.23;;;;;;;-0.35;100.00;101861.00;5068541;28;20028;-72
2021/01/15 03:51:52;;;;;;;41.13;15.07;;;;;;;-0.24;100.00;101854.84;5069547;28;20085;-72
2021/01/15 03:54:17;;;;;;;32.90;14.65;;;;;;;-0.28;100.00;101863.66;5058874;28;20043;-72
2021/01/15 03:56:43;;;;;;;29.55;13.85;;;;;;;-0.08;100.00;101867.13;5060237;28;20628;-72
2021/01/15 03:59:08;;;;;;;32.50;14.57;;;;;;;-0.14;100.00;101866.25;5074160;28;20072;-72
2021/01/15 04:01:36;;;;;;;30.55;13.88;;;;;;;-0.11;100.00;101869.75;5064928;28;20545;-72
2021/01/15 04:04:02;;;;;;;29.98;13.63;;;;;;;0.03;100.00;101868.84;5074434;28;20061;-72
2021/01/15 04:06:27;;;;;;;29.90;13.93;;;;;;;-0.06;100.00;101875.91;5084527;28;20584;-72
2021/01/15 04:08:52;;;;;;;30.60;13.05;;;;;;;-0.05;100.00;101885.59;5061885;28;20399;-72
2021/01/15 04:11:19;;;;;;;31.38;14.23;;;;;;;0.06;100.00;101876.78;5077865;28;20496;-72
2021/01/15 04:13:45;;;;;;;28.38;14.30;;;;;;;0.02;100.00;101872.38;5075390;28;20445;-72
2021/01/15 04:16:17;;;;;;;30.35;15.45;;;;;;;0.13;100.00;101878.50;5067570;28;20037;-72
2021/01/15 04:18:43;;;;;;;29.45;14.70;;;;;;;0.08;100.00;101882.91;5070596;28;20486;-72
2021/01/15 04:21:09;;;;;;;32.58;14.50;;;;;;;0.07;100.00;101891.69;5066650;28;20051;-72
2021/01/15 04:23:35;;;;;;;32.60;14.60;;;;;;;0.08;100.00;101880.28;5062744;28;20041;-72
2021/01/15 04:26:02;;;;;;;28.48;13.38;;;;;;;0.13;100.00;101883.78;5059884;28;20037;-72
2021/01/15 04:28:27;;;;;;;30.17;14.13;;;;;;;0.22;100.00;101895.19;5070033;28;20032;-72
2021/01/15 04:30:53;;;;;;;29.48;13.63;;;;;;;0.19;100.00;101896.94;5062234;28;20032;-72
2021/01/15 04:33:18;;;;;;;31.83;14.77;;;;;;;0.33;99.49;101890.75;5061745;28;20090;-72
2021/01/15 04:35:44;;;;;;;32.00;13.48;;;;;;;0.35;99.79;101896.03;5080870;28;20450;-72
2021/01/15 04:38:10;;;;;;;29.45;13.98;;;;;;;0.28;100.00;101899.56;5069593;28;20402;-72
2021/01/15 04:40:36;;;;;;;34.75;15.55;;;;;;;0.57;99.01;101904.72;5051237;28;20029;-71
2021/01/15 04:43:01;;;;;;;31.15;15.18;;;;;;;0.40;99.82;101910.09;5067338;28;20025;-72
2021/01/15 04:45:28;;;;;;;33.30;14.82;;;;;;;0.51;100.00;101910.94;5075925;28;20607;-72
2021/01/15 04:47:54;;;;;;;35.60;15.40;;;;;;;0.40;100.00;101912.75;5066172;28;20024;-72
2021/01/15 04:50:20;;;;;;;38.35;16.60;;;;;;;0.42;100.00;101908.34;5059270;28;20628;-71
2021/01/15 04:52:50;;;;;;;37.83;15.38;;;;;;;0.35;100.00;101914.53;5061489;28;20036;-71
2021/01/15 04:55:18;;;;;;;36.67;16.20;;;;;;;0.38;100.00;101920.66;5069764;28;20111;-71
2021/01/15 04:57:47;;;;;;;31.83;16.10;;;;;;;0.39;100.00;101924.19;5058599;28;20494;-71
2021/01/15 05:00:16;;;;;;;32.97;15.50;;;;;;;0.49;100.00;101923.28;5068671;28;20028;-71
2021/01/15 05:02:46;;;;;;;31.27;16.30;;;;;;;0.46;100.00;101931.19;5063206;28;20109;-71
2021/01/15 05:05:18;;;;;;;32.95;16.17;;;;;;;0.47;100.00;101925.03;5070301;28;20028;-72
2021/01/15 05:08:07;;;;;;;37.58;16.55;;;;;;;0.49;100.00;101925.03;5062487;28;20040;-71
2021/01/15 05:10:36;;;;;;;36.45;16.73;;;;;;;0.46;100.00;101928.56;5051882;28;20190;-72
2021/01/15 05:13:05;;;;;;;39.55;16.83;;;;;;;0.37;100.00;101928.59;5059088;28;20029;-71
2021/01/15 05:15:31;;;;;;;36.33;16.45;;;;;;;0.44;100.00;101935.59;5067189;28;20102;-71
2021/01/15 05:17:58;;;;;;;38.35;17.80;;;;;;;0.44;100.00;101938.25;5069205;28;20494;-71
2021/01/15 05:20:26;;;;;;;34.00;16.20;;;;;;;0.47;100.00;101943.53;5064119;28;20028;-71
2021/01/15 05:22:52;;;;;;;45.50;17.30;;;;;;;0.47;100.00;101940.00;5062089;28;20036;-71
2021/01/15 05:25:17;;;;;;;36.85;17.55;;;;;;;0.52;100.00;101933.81;5049032;28;20040;-71
2021/01/15 05:27:43;;;;;;;39.20;17.55;;;;;;;0.66;100.00;101947.88;5063091;28;20087;-71
2021/01/15 05:30:11;;;;;;;40.50;17.67;;;;;;;0.68;100.00;101955.78;5064706;28;20094;-71
2021/01/15 05:32:37;;;;;;;39.33;18.23;;;;;;;0.61;100.00;101960.22;5065618;28;20028;-71
2021/01/15 05:35:02;;;;;;;39.33;16.95;;;;;;;0.73;100.00;101962.81;5064264;28;20063;-71
2021/01/15 05:37:28;;;;;;;37.33;17.42;;;;;;;0.67;100.00;101959.31;5055819;28;20028;-71
2021/01/15 05:39:53;;;;;;;38.05;17.52;;;;;;;0.67;100.00;101965.47;5066612;28;20029;-71
2021/01/15 05:42:19;;;;;;;38.67;17.98;;;;;;;0.69;100.00;101962.81;5059774;28;20563;-71
2021/01/15 05:44:44;;;;;;;40.63;17.80;;;;;;;0.75;100.00;101961.03;5069366;28;20058;-71
2021/01/15 05:47:09;;;;;;;39.53;17.45;;;;;;;0.71;100.00;101975.16;5062549;28;20098;-71
2021/01/15 05:49:35;;;;;;;43.92;20.20;;;;;;;0.61;100.00;101970.78;5068573;28;20034;-71
2021/01/15 05:52:07;;;;;;;43.58;18.92;;;;;;;0.69;100.00;101976.91;5061726;28;20406;-71
2021/01/15 05:54:34;;;;;;;42.15;18.50;;;;;;;0.76;100.00;101986.56;5064884;28;20029;-71
2021/01/15 05:57:01;;;;;;;41.53;18.27;;;;;;;0.77;100.00;101987.44;5063894;28;20032;-71
2021/01/15 05:59:28;;;;;;;38.63;18.63;;;;;;;0.75;100.00;101983.94;5079049;28;20052;-71
2021/01/15 06:01:54;;;;;;;45.47;19.23;;;;;;;0.78;100.00;101976.88;5082603;28;20616;-71
2021/01/15 06:04:32;;;;;;;41.47;19.27;;;;;;;0.72;100.00;101978.66;5055033;28;20040;-71
2021/01/15 06:06:59;;;;;;;47.47;18.38;;;;;;;0.76;100.00;101978.66;5068479;28;20158;-71
2021/01/15 06:09:24;;;;;;;45.97;20.05;;;;;;;0.72;100.00;101974.25;5062848;28;20078;-71
2021/01/15 06:11:52;;;;;;;43.05;20.10;;;;;;;0.74;100.00;101976.91;5070523;28;20636;-71
2021/01/15 06:14:18;;;;;;;42.97;19.98;;;;;;;0.63;100.00;101981.31;5093313;28;20062;-71
2021/01/15 06:16:44;;;;;;;45.95;19.90;;;;;;;0.70;100.00;101997.16;5072460;28;20411;-71
2021/01/15 06:19:09;;;;;;;41.90;19.60;;;;;;;0.89;100.00;101997.97;5062838;28;20036;-71
2021/01/15 06:21:35;;;;;;;48.42;20.50;;;;;;;0.82;100.00;101999.75;5055761;28;20032;-72
2021/01/15 06:24:06;;;;;;;43.83;19.52;;;;;;;0.78;100.00;101994.50;5065698;28;20037;-71
2021/01/15 06:26:37;;;;;;;46.63;20.60;;;;;;;0.80;100.00;102003.31;5066880;28;20075;-71
2021/01/15 06:29:05;;;;;;;48.13;19.95;;;;;;;0.70;100.00;102001.56;5073444;28;20102;-71
2021/01/15 06:31:42;;;;;;;51.92;21.70;;;;;;;0.65;100.00;102003.34;5060699;28;20024;-71
2021/01/15 06:34:07;;;;;;;44.80;20.92;;;;;;;0.67;100.00;102005.13;5063795;28;20027;-71
2021/01/15 06:36:50;;;;;;;45.55;20.35;;;;;;;0.68;100.00;102009.50;5070044;28;20637;-71
2021/01/15 06:39:17;;;;;;;45.13;20.05;;;;;;;0.85;100.00;102009.47;5068221;28;20039;-71
2021/01/15 06:41:43;;;;;;;47.08;20.45;;;;;;;0.78;100.00;102018.28;5066476;28;20188;-71
2021/01/15 06:44:10;;;;;;;42.85;20.33;;;;;;;0.71;100.00;102022.72;5067635;28;20028;-71
2021/01/15 06:46:40;;;;;;;47.42;20.75;;;;;;;0.68;100.00;102025.34;5065196;28;20039;-71
2021/01/15 06:49:14;;;;;;;49.20;21.70;;;;;;;0.67;100.00;102028.91;5071089;28;20540;-72
2021/01/15 06:51:53;;;;;;;51.67;22.13;;;;;;;0.84;100.00;102035.88;5056475;28;20105;-71
2021/01/15 06:54:23;;;;;;;49.38;21.25;;;;;;;0.81;100.00;102042.03;5062432;28;20387;-71
2021/01/15 06:56:58;;;;;;;51.60;21.10;;;;;;;0.85;100.00;102046.47;5063825;28;20163;-71
2021/01/15 06:59:32;;;;;;;42.05;20.75;;;;;;;0.79;100.00;102059.69;5057505;28;20040;-71
2021/01/15 07:02:47;;;;;;;52.90;22.17;;;;;;;0.80;100.00;102057.03;5053076;28;20053;-71
2021/01/15 07:05:15;;;;;;;46.88;19.90;;;;;;;0.80;100.00;102069.38;5079537;28;20089;-71
2021/01/15 07:07:42;;;;;;;48.05;22.00;;;;;;;0.70;100.00;102070.28;5068838;28;20128;-71
2021/01/15 07:10:08;;;;;;;52.60;22.42;;;;;;;0.66;100.00;102068.53;5070273;28;20097;-71
2021/01/15 07:12:41;;;;;;;48.72;22.58;;;;;;;0.78;100.00;102064.09;5072649;28;21128;-71
2021/01/15 07:15:21;;;;;;;48.28;21.95;;;;;;;0.90;100.00;102072.88;5070218;28;20032;-71
2021/01/15 07:17:47;;;;;;;47.40;22.52;;;;;;;0.78;100.00;102073.78;5066565;28;20157;-71
2021/01/15 07:20:15;;;;;;;51.83;21.98;;;;;;;0.95;100.00;102065.81;5056519;28;20153;-71
2021/01/15 07:22:53;;;;;;;54.50;22.42;;;;;;;0.85;100.00;102064.09;5072372;28;20036;-76
2021/01/15 07:25:20;;;;;;;76.18;30.13;;;;;;;0.82;100.00;102081.69;5068979;28;20028;-72
2021/01/15 07:27:46;;;;;;;53.70;23.13;;;;;;;0.92;100.00;102076.41;5062753;28;20120;-72
2021/01/15 07:30:26;;;;;;;60.53;23.20;;;;;;;0.89;100.00;102076.41;5066064;28;20116;-72
2021/01/15 07:32:53;;;;;;;48.53;21.35;;;;;;;0.80;100.00;102082.59;5072277;28;20401;-73
2021/01/15 07:35:21;;;;;;;54.95;22.98;;;;;;;0.82;100.00;102076.41;5059310;28;20032;-72
2021/01/15 07:37:47;;;;;;;46.53;22.70;;;;;;;0.79;100.00;102076.44;5060360;28;20576;-72
2021/01/15 07:40:16;;;;;;;54.13;23.92;;;;;;;0.73;100.00;102086.13;5070948;28;20118;-72
2021/01/15 07:42:50;;;;;;;53.53;22.88;;;;;;;0.95;100.00;102084.31;5063964;28;20036;-72
2021/01/15 07:45:28;;;;;;;55.55;23.30;;;;;;;0.75;100.00;102089.63;5086909;28;20039;-72
2021/01/15 07:48:01;;;;;;;50.70;23.40;;;;;;;0.77;100.00;102099.34;5062278;28;20060;-72
2021/01/15 07:50:28;;;;;;;52.25;22.35;;;;;;;0.84;100.00;102092.28;5072834;28;20040;-72
2021/01/15 07:53:18;;;;;;;46.65;21.42;;;;;;;0.86;100.00;102089.63;5067357;28;20059;-72
2021/01/15 07:55:57;;;;;;;50.25;22.00;;;;;;;0.79;100.00;102100.22;5093047;28;20504;-72
2021/01/15 07:58:42;;;;;;;49.10;22.35;;;;;;;0.80;100.00;102104.59;5070137;28;20513;-72
2021/01/15 08:01:13;;;;;;;53.33;22.85;;;;;;;0.73;100.00;102102.88;5076071;28;20120;-72
2021/01/15 08:03:42;;;;;;;51.35;23.05;;;;;;;0.82;100.00;102113.41;5074842;28;20036;-72
2021/01/15 08:06:09;;;;;;;47.67;22.10;;;;;;;0.81;100.00;102111.66;5085255;28;20071;-72
2021/01/15 08:08:41;;;;;;;49.60;22.23;;;;;;;0.81;100.00;102116.94;5063627;28;20052;-72
2021/01/15 08:11:14;;;;;;;52.78;22.67;;;;;;;0.86;100.00;102124.00;5084024;28;20381;-72
2021/01/15 08:13:39;;;;;;;;;;;;;;;0.82;100.00;102124.00;5074573;28;20101;-72
2021/01/15 08:16:06;;;;;;;52.63;22.63;;;;;;;0.80;100.00;102138.97;5055046;28;19921;-72
2021/01/15 08:18:32;;;;;;;52.30;22.40;;;;;;;0.86;100.00;102145.16;5064984;28;20029;-72
2021/01/15 08:20:58;;;;;;;51.90;22.10;;;;;;;0.83;100.00;102151.31;5067066;28;20072;-72
2021/01/15 08:23:26;;;;;;;51.40;22.13;;;;;;;0.82;100.00;102145.13;5060447;28;20112;-72
2021/01/15 08:26:25;;;;;;;53.47;22.58;;;;;;;0.95;100.00;102156.56;5059306;28;20111;-72
2021/01/15 08:28:50;;;;;;;48.92;21.77;;;;;;;1.03;100.00;102153.91;5067835;28;20068;-72
2021/01/15 08:31:20;;;;;;;55.22;24.13;;;;;;;0.97;100.00;102160.09;5062814;28;20127;-73
2021/01/15 08:33:46;;;;;;;46.55;22.27;;;;;;;0.98;100.00;102163.63;5061575;28;20029;-72
2021/01/15 08:36:12;;;;;;;47.00;22.63;;;;;;;1.10;100.00;102161.84;5069838;28;20036;-72
2021/01/15 08:38:38;;;;;;;48.22;23.00;;;;;;;0.99;100.00;102173.31;5089101;28;20123;-72
2021/01/15 08:41:23;;;;;;;48.25;22.77;;;;;;;1.07;100.00;102177.69;5074238;28;20124;-72
2021/01/15 08:43:51;;;;;;;53.60;22.65;;;;;;;1.07;100.00;102176.81;5064436;28;20078;-72
2021/01/15 08:46:17;;;;;;;53.88;23.38;;;;;;;1.03;100.00;102188.28;5068548;28;20067;-72
2021/01/15 08:48:44;;;;;;;53.75;22.17;;;;;;;1.07;100.00;102187.38;5073789;28;20051;-72
2021/01/15 08:51:10;;;;;;;50.80;23.95;;;;;;;1.12;100.00;102193.53;5069962;28;20094;-72
2021/01/15 08:53:44;;;;;;;50.13;23.42;;;;;;;1.23;100.00;102194.44;5053716;28;20036;-72
2021/01/15 08:56:14;;;;;;;54.75;24.42;;;;;;;1.18;100.00;102202.34;5071714;28;20039;-72
2021/01/15 08:58:49;;;;;;;53.95;23.52;;;;;;;1.19;100.00;102211.16;5067916;28;20028;-72
2021/01/15 09:01:29;;;;;;;54.28;23.60;;;;;;;1.18;100.00;102206.75;5067228;28;20047;-72
2021/01/15 09:03:57;;;;;;;50.35;22.83;;;;;;;1.20;100.00;102212.94;5060081;28;20276;-72
2021/01/15 09:06:24;;;;;;;45.75;22.05;;;;;;;1.32;100.00;102210.25;5091154;28;20037;-72
2021/01/15 09:08:53;;;;;;;48.28;23.23;;;;;;;1.27;100.00;102206.75;5061654;28;20044;-72
2021/01/15 09:11:19;;;;;;;57.45;25.33;;;;;;;1.47;100.00;102220.81;5072213;28;20398;-72
2021/01/15 09:13:46;;;;;;;51.97;24.00;;;;;;;1.37;100.00;102224.34;5079443;28;20041;-72
2021/01/15 09:16:16;;;;;;;50.05;22.95;;;;;;;1.43;100.00;102218.16;5062788;28;20161;-72
2021/01/15 09:18:42;;;;;;;47.80;22.30;;;;;;;1.54;100.00;102227.81;5064645;28;20531;-72
2021/01/15 09:21:08;;;;;;;49.17;23.17;;;;;;;1.49;100.00;102229.59;5061163;28;20502;-72
2021/01/15 09:23:33;;;;;;;51.33;22.83;;;;;;;1.55;100.00;102234.88;5072413;28;20016;-73
2021/01/15 09:25:58;;;;;;;53.67;22.70;;;;;;;1.65;100.00;102251.63;5059629;28;20041;-72
2021/01/15 09:28:24;;;;;;;48.25;22.73;;;;;;;1.84;100.00;102248.03;5065164;28;20047;-72
2021/01/15 09:30:50;;;;;;;50.65;22.90;;;;;;;1.73;100.00;102256.91;5069251;28;20037;-72
2021/01/15 09:33:15;;;;;;;48.13;23.08;;;;;;;1.70;100.00;102260.41;5067660;28;20068;-72
2021/01/15 09:35:41;;;;;;;53.38;24.98;;;;;;;1.67;100.00;102260.41;5062415;28;20556;-73
2021/01/15 09:38:06;;;;;;;52.08;23.10;;;;;;;1.72;100.00;102271.00;5057775;28;20043;-72
2021/01/15 09:40:32;;;;;;;67.10;29.30;;;;;;;1.79;100.00;102275.41;5068514;28;20051;-72
2021/01/15 09:42:57;;;;;;;73.80;34.67;;;;;;;1.80;100.00;102283.31;5077482;28;20044;-73
2021/01/15 09:45:23;;;;;;;74.85;37.63;;;;;;;1.77;100.00;102278.06;5067171;28;20044;-72
2021/01/15 09:47:48;;;;;;;56.33;25.50;;;;;;;1.90;100.00;102290.38;5080736;28;20029;-73
2021/01/15 09:50:14;;;;;;;55.78;25.77;;;;;;;1.93;99.77;102294.75;5076269;28;20595;-73
2021/01/15 09:52:39;;;;;;;51.05;23.13;;;;;;;1.89;98.92;102290.38;5097190;28;20027;-73
2021/01/15 09:55:05;;;;;;;55.08;23.90;;;;;;;1.79;99.56;102292.13;5075167;28;20711;-73
2021/01/15 09:57:30;;;;;;;53.20;24.98;;;;;;;1.90;99.86;102292.13;5074949;28;20029;-73
2021/01/15 09:59:57;;;;;;;51.13;24.38;;;;;;;1.83;99.94;102291.28;5066887;28;20033;-73
2021/01/15 10:02:22;;;;;;;45.60;21.77;;;;;;;1.92;99.47;102292.97;5059629;28;20387;-73
2021/01/15 10:04:48;;;;;;;53.30;24.45;;;;;;;1.91;99.37;102299.19;5076507;28;20028;-73
2021/01/15 10:07:13;;;;;;;49.65;24.05;;;;;;;2.02;98.98;102310.63;5075822;28;20033;-73
2021/01/15 10:09:38;;;;;;;53.83;23.15;;;;;;;2.13;97.64;102308.81;5064671;28;20037;-74
2021/01/15 10:12:04;;;;;;;54.67;24.83;;;;;;;2.15;97.52;102304.38;5067171;28;20043;-73
2021/01/15 10:14:29;;;;;;;57.08;24.00;;;;;;;2.13;98.19;102319.41;5072840;28;20070;-73
2021/01/15 10:16:55;;;;;;;53.25;22.92;;;;;;;2.27;97.28;102306.09;5073914;28;20125;-73
2021/01/15 10:19:21;;;;;;;53.45;24.38;;;;;;;2.21;97.25;102314.06;5070056;28;20392;-73
2021/01/15 10:21:47;;;;;;;49.47;21.52;;;;;;;2.28;96.16;102316.69;5078602;28;20028;-73
2021/01/15 10:24:14;;;;;;;49.15;22.95;;;;;;;2.26;95.84;102321.13;5068595;28;20432;-73
2021/01/15 10:26:41;;;;;;;46.20;22.00;;;;;;;2.37;95.68;102323.69;5047822;28;20025;-73
2021/01/15 10:29:11;;;;;;;48.65;22.77;;;;;;;2.39;95.93;102328.13;5076799;28;20070;-73
2021/01/15 10:31:45;;;;;;;49.67;23.40;;;;;;;2.33;96.73;102322.84;5067290;28;20028;-73
2021/01/15 10:34:11;;;;;;;52.53;23.38;;;;;;;2.39;97.43;102324.59;5094843;28;20043;-73
2021/01/15 10:36:40;;;;;;;51.58;22.13;;;;;;;2.42;96.31;102322.78;5091388;28;20033;-73
2021/01/15 10:39:05;;;;;;;50.33;22.40;;;;;;;2.32;97.06;102322.84;5076025;28;20490;-73
2021/01/15 10:41:33;;;;;;;47.85;22.48;;;;;;;2.32;97.46;102321.09;5073027;28;20174;-73
2021/01/15 10:44:00;;;;;;;48.15;21.75;;;;;;;2.40;96.69;102315.75;5070641;28;20031;-73
2021/01/15 10:46:36;;;;;;;40.78;20.42;;;;;;;2.44;95.94;102315.72;5073530;28;20131;-73
2021/01/15 10:49:05;;;;;;;44.33;22.10;;;;;;;2.47;95.25;102312.16;5078691;28;20104;-73
2021/01/15 10:51:32;;;;;;;44.33;21.05;;;;;;;2.35;95.86;102312.22;5072376;28;20027;-73
2021/01/15 10:53:57;;;;;;;47.42;21.63;;;;;;;2.26;95.91;102313.16;5064885;28;20613;-73
2021/01/15 10:56:24;;;;;;;51.67;23.55;;;;;;;2.32;95.60;102320.19;5076676;28;20035;-73
2021/01/15 10:58:49;;;;;;;44.90;21.73;;;;;;;2.30;95.90;102321.97;5079647;28;20117;-73
2021/01/15 11:01:15;;;;;;;52.30;23.42;;;;;;;2.23;96.65;102320.22;5069157;28;20648;-73
2021/01/15 11:03:42;;;;;;;47.83;22.50;;;;;;;2.27;96.96;102317.59;5071195;28;20033;-73
2021/01/15 11:06:17;;;;;;;56.85;23.25;;;;;;;2.33;97.19;102327.25;5060465;28;20040;-73
2021/01/15 11:08:43;;;;;;;44.97;21.05;;;;;;;2.38;96.69;102321.06;5072856;28;20497;-73
2021/01/15 11:11:08;;;;;;;44.70;21.23;;;;;;;2.38;96.35;102331.66;5079861;28;20037;-73
2021/01/15 11:13:34;;;;;;;44.17;20.85;;;;;;;2.34;94.83;102324.63;5076865;28;20040;-73
2021/01/15 11:15:59;;;;;;;53.70;20.67;;;;;;;2.42;94.82;102324.56;5083127;28;20110;-73
2021/01/15 11:18:24;;;;;;;44.42;19.35;;;;;;;2.56;92.17;102325.38;5073157;28;20036;-73